Time;durP1;ratioP1;P1;durP2;ratioP2;P2;SDS_P1;SDS_P2;PMS_P1;PMS_P2;Temp;Humidity;BMP_temperature;BMP_pressure;BME280_temperature;BME280_humidity;BME280_pressure;Samples;Min_cycle;Max_cycle;Signal;HPM_P1;HPM_P2
2023/04/10 00:01:00;;;;;;;48.50;29.75;;;8.30;99.90;;;;;;5072452;28;20098;-44
2023/04/10 00:03:26;;;;;;;47.78;31.02;;;8.20;99.90;;;;;;5073990;28;20120;-45
2023/04/10 00:05:53;;;;;;;43.97;29.85;;;8.30;99.90;;;;;;5072621;28;20075;-46
2023/04/10 00:08:23;;;;;;;43.17;30.15;;;8.20;99.90;;;;;;5072759;28;20040;-46
2023/04/10 00:10:49;;;;;;;48.65;31.40;;;8.20;99.90;;;;;;5074052;28;20045;-45
2023/04/10 00:13:15;;;;;;;46.85;29.90;;;8.20;99.90;;;;;;5072787;28;20373;-50
2023/04/10 00:15:42;;;;;;;48.55;30.98;;;8.10;99.90;;;;;;5073642;28;20546;-46
2023/04/10 00:18:08;;;;;;;47.25;30.55;;;8.10;99.90;;;;;;5073696;28;20117;-47
2023/04/10 00:20:33;;;;;;;46.88;31.15;;;8.10;99.90;;;;;;5073539;28;20192;-44
2023/04/10 00:22:59;;;;;;;48.97;32.78;;;8.10;99.90;;;;;;5073500;28;20485;-45
2023/04/10 00:25:25;;;;;;;49.72;33.20;;;8.00;99.90;;;;;;5073505;28;20532;-45
2023/04/10 00:27:54;;;;;;;47.28;31.63;;;8.10;99.90;;;;;;5072496;28;20047;-45
2023/04/10 00:30:20;;;;;;;49.00;31.88;;;8.00;99.90;;;;;;5073431;28;20435;-45
2023/04/10 00:32:46;;;;;;;51.03;33.22;;;8.00;99.90;;;;;;5072135;28;20056;-45
2023/04/10 00:35:12;;;;;;;48.70;32.72;;;7.90;99.90;;;;;;5073223;28;20048;-44
2023/04/10 00:37:38;;;;;;;50.67;33.70;;;7.90;99.90;;;;;;5073121;28;20050;-44
2023/04/10 00:40:05;;;;;;;51.55;33.25;;;7.90;99.90;;;;;;5073123;28;20040;-45
2023/04/10 00:42:31;;;;;;;50.05;33.60;;;7.90;99.90;;;;;;5073346;28;20481;-44
2023/04/10 00:44:58;;;;;;;53.28;34.25;;;7.90;99.90;;;;;;5073041;28;20095;-44
2023/04/10 00:47:24;;;;;;;51.25;33.90;;;7.80;99.90;;;;;;5073098;28;20100;-44
2023/04/10 00:49:50;;;;;;;54.85;35.05;;;7.80;99.90;;;;;;5072998;28;20040;-45
2023/04/10 00:52:16;;;;;;;49.33;33.58;;;7.80;99.90;;;;;;5072895;28;20507;-45
2023/04/10 00:54:42;;;;;;;48.38;33.40;;;7.80;99.90;;;;;;5072979;28;20044;-46
2023/04/10 00:57:08;;;;;;;49.45;35.17;;;7.70;99.90;;;;;;5072831;28;20045;-47
2023/04/10 00:59:34;;;;;;;50.30;34.10;;;7.70;99.90;;;;;;5072691;28;20569;-45
2023/04/10 01:02:00;;;;;;;49.60;33.95;;;7.70;99.90;;;;;;5072707;28;20501;-45
2023/04/10 01:04:27;;;;;;;52.35;35.40;;;7.60;99.90;;;;;;5072821;28;20044;-47
2023/04/10 01:07:17;;;;;;;48.72;34.58;;;7.60;99.90;;;;;;5072615;28;20372;-46
2023/04/10 01:10:19;;;;;;;53.50;34.75;;;7.50;99.90;;;;;;5072864;28;20054;-45
2023/04/10 01:13:09;;;;;;;54.05;36.35;;;7.50;99.90;;;;;;5072288;28;20416;-48
2023/04/10 01:15:46;;;;;;;51.33;33.60;;;7.50;99.90;;;;;;5072709;28;20051;-48
2023/04/10 01:18:30;;;;;;;55.25;35.50;;;7.40;99.90;;;;;;5071384;28;20048;-45
2023/04/10 01:20:58;;;;;;;51.17;33.17;;;7.50;99.90;;;;;;5072303;28;20500;-47
2023/04/10 01:23:41;;;;;;;53.55;35.78;;;7.40;99.90;;;;;;5072683;28;20485;-49
2023/04/10 01:26:11;;;;;;;53.92;37.22;;;7.40;99.90;;;;;;5072417;28;20052;-45
2023/04/10 01:29:00;;;;;;;53.10;36.22;;;7.40;99.90;;;;;;5072451;28;20033;-44
2023/04/10 01:31:49;;;;;;;52.90;35.45;;;7.40;99.90;;;;;;5070920;28;20055;-46
2023/04/10 01:34:22;;;;;;;54.17;37.20;;;7.40;99.90;;;;;;5072525;28;20055;-47
2023/04/10 01:36:59;;;;;;;53.00;37.28;;;7.40;99.90;;;;;;5072367;28;20080;-48
2023/04/10 01:39:27;;;;;;;53.38;36.47;;;7.40;99.90;;;;;;5072221;28;20063;-46
2023/04/10 01:41:55;;;;;;;59.17;38.10;;;7.30;99.90;;;;;;5072120;28;20378;-49
2023/04/10 01:44:27;;;;;;;56.67;37.83;;;7.30;99.90;;;;;;5072000;28;20043;-47
2023/04/10 01:46:55;;;;;;;58.15;38.22;;;7.30;99.90;;;;;;5072000;28;20040;-45
2023/04/10 01:49:24;;;;;;;53.20;37.30;;;7.20;99.90;;;;;;5071396;28;20461;-47
2023/04/10 01:51:50;;;;;;;59.72;39.47;;;7.20;99.90;;;;;;5071845;28;20041;-49
2023/04/10 01:54:16;;;;;;;56.25;37.05;;;7.20;99.90;;;;;;5072062;28;20040;-44
2023/04/10 01:56:42;;;;;;;58.33;39.08;;;7.20;99.90;;;;;;5071961;28;20390;-45
2023/04/10 01:59:08;;;;;;;60.80;40.75;;;7.30;99.90;;;;;;5071655;28;20073;-44
2023/04/10 02:01:34;;;;;;;58.80;38.75;;;7.20;99.90;;;;;;5071859;28;20107;-45
2023/04/10 02:04:01;;;;;;;58.50;39.10;;;7.20;99.90;;;;;;5071948;28;20072;-45
2023/04/10 02:07:01;;;;;;;57.30;38.20;;;7.10;99.90;;;;;;5071924;28;20036;-44
2023/04/10 02:09:55;;;;;;;58.45;39.72;;;7.20;99.90;;;;;;5071790;28;20548;-44
2023/04/10 02:12:35;;;;;;;62.40;40.58;;;7.10;99.90;;;;;;5072109;28;20041;-45
2023/04/10 02:15:05;;;;;;;61.55;39.90;;;7.20;99.90;;;;;;5070558;28;20127;-44
2023/04/10 02:17:32;;;;;;;59.55;39.28;;;7.20;99.90;;;;;;5071692;28;20051;-44
2023/04/10 02:19:59;;;;;;;59.03;40.35;;;7.10;99.90;;;;;;5071901;28;20074;-46
2023/04/10 02:22:26;;;;;;;57.53;39.65;;;7.10;99.90;;;;;;5070351;28;20047;-49
2023/04/10 02:24:53;;;;;;;57.90;40.03;;;7.10;99.90;;;;;;5071909;28;20288;-46
2023/04/10 02:27:33;;;;;;;59.75;39.67;;;7.10;99.90;;;;;;5071652;28;20036;-46
2023/04/10 02:30:01;;;;;;;58.58;39.67;;;7.10;99.90;;;;;;5071671;28;20047;-46
2023/04/10 02:32:26;;;;;;;61.05;40.45;;;7.20;99.90;;;;;;5071494;28;20074;-45
2023/04/10 02:34:52;;;;;;;58.03;40.58;;;7.10;99.90;;;;;;5071792;28;20119;-47
2023/04/10 02:37:18;;;;;;;63.85;43.00;;;7.00;99.90;;;;;;5071451;28;20040;-45
2023/04/10 02:39:43;;;;;;;61.70;40.42;;;7.00;99.90;;;;;;5071607;28;20040;-46
2023/04/10 02:42:09;;;;;;;60.95;43.58;;;7.00;99.90;;;;;;5071485;28;20492;-45
2023/04/10 02:44:35;;;;;;;62.75;41.90;;;7.00;99.90;;;;;;5071453;28;20493;-45
2023/04/10 02:47:01;;;;;;;60.65;41.42;;;7.00;99.90;;;;;;5071296;28;20122;-45
2023/04/10 02:49:26;;;;;;;62.60;41.83;;;6.90;99.90;;;;;;5071204;28;20086;-45
2023/04/10 02:51:52;;;;;;;60.88;42.13;;;7.00;99.90;;;;;;5071532;28;20055;-46
2023/04/10 02:54:18;;;;;;;61.60;41.65;;;6.90;99.90;;;;;;5070229;28;20481;-45
2023/04/10 02:56:43;;;;;;;60.25;42.50;;;7.00;99.90;;;;;;5071412;28;20052;-45
2023/04/10 02:59:09;;;;;;;62.80;42.72;;;6.90;99.90;;;;;;5072182;28;20119;-45
2023/04/10 03:01:35;;;;;;;66.07;42.97;;;7.00;99.90;;;;;;5075019;28;20048;-45
2023/04/10 03:04:02;;;;;;;62.50;42.38;;;6.90;99.90;;;;;;5075022;28;20139;-46
2023/04/10 03:06:28;;;;;;;62.35;41.72;;;7.00;99.90;;;;;;5075300;28;20349;-46
2023/04/10 03:08:55;;;;;;;61.25;41.78;;;6.90;99.90;;;;;;5075105;28;20124;-46
2023/04/10 03:11:21;;;;;;;60.33;41.35;;;6.80;99.90;;;;;;5075042;28;20413;-46
2023/04/10 03:13:47;;;;;;;62.00;42.05;;;6.90;99.90;;;;;;5074800;28;20047;-45
2023/04/10 03:16:14;;;;;;;61.58;41.60;;;6.80;99.90;;;;;;5075055;28;20040;-47
2023/04/10 03:18:39;;;;;;;59.05;41.17;;;6.80;99.90;;;;;;5074893;28;20115;-45
2023/04/10 03:21:05;;;;;;;61.03;41.50;;;6.80;99.90;;;;;;5074645;28;20128;-45
2023/04/10 03:23:31;;;;;;;62.25;42.13;;;6.80;99.90;;;;;;5073327;28;20047;-45
2023/04/10 03:25:57;;;;;;;62.53;44.05;;;6.80;99.90;;;;;;5074848;28;20048;-46
2023/04/10 03:28:22;;;;;;;64.88;43.25;;;6.70;99.90;;;;;;5074586;28;20041;-46
2023/04/10 03:30:51;;;;;;;61.22;42.88;;;6.70;99.90;;;;;;5073372;28;20044;-45
2023/04/10 03:33:17;;;;;;;62.47;42.55;;;6.70;99.90;;;;;;5074632;28;20036;-46
2023/04/10 03:35:45;;;;;;;60.30;41.17;;;6.70;99.90;;;;;;5074694;28;20062;-45
2023/04/10 03:38:11;;;;;;;61.17;42.83;;;6.70;99.90;;;;;;5074444;28;20178;-45
2023/04/10 03:40:36;;;;;;;65.97;43.67;;;6.60;99.90;;;;;;5072737;28;20115;-45
2023/04/10 03:43:02;;;;;;;63.45;42.05;;;6.60;99.90;;;;;;5074250;28;20040;-47
2023/04/10 03:45:28;;;;;;;59.75;42.30;;;6.80;99.90;;;;;;5074613;28;20553;-46
2023/04/10 03:47:54;;;;;;;61.70;44.42;;;6.60;99.90;;;;;;5074076;28;20087;-46
2023/04/10 03:50:20;;;;;;;64.95;44.72;;;6.70;99.90;;;;;;5074325;28;20043;-46
2023/04/10 03:52:45;;;;;;;62.88;43.10;;;6.60;99.90;;;;;;5074185;28;20111;-46
2023/04/10 03:55:11;;;;;;;61.13;43.60;;;6.50;99.90;;;;;;5074239;28;20381;-45
2023/04/10 03:57:37;;;;;;;60.13;42.85;;;6.60;99.90;;;;;;5074215;28;20055;-46
2023/04/10 04:00:04;;;;;;;71.15;44.50;;;6.60;99.90;;;;;;5073969;28;20052;-48
2023/04/10 04:02:30;;;;;;;60.15;41.58;;;6.50;99.90;;;;;;5074021;28;20505;-48
2023/04/10 04:04:56;;;;;;;61.33;44.05;;;6.50;99.90;;;;;;5074080;28;20083;-45
2023/04/10 04:07:21;;;;;;;63.08;44.15;;;6.50;99.90;;;;;;5074034;28;20495;-46
2023/04/10 04:09:47;;;;;;;63.50;43.60;;;6.50;99.90;;;;;;5073824;28;20052;-46
2023/04/10 04:12:13;;;;;;;65.30;43.40;;;6.50;99.90;;;;;;5073138;28;20067;-44
2023/04/10 04:14:38;;;;;;;66.35;45.92;;;6.50;99.90;;;;;;5073932;28;20045;-45
2023/04/10 04:17:04;;;;;;;62.95;39.35;;;6.50;99.90;;;;;;5073925;28;20439;-45
2023/04/10 04:19:30;;;;;;;60.75;40.45;;;6.40;99.90;;;;;;5073683;28;20435;-45
2023/04/10 04:21:56;;;;;;;66.50;42.78;;;6.50;99.90;;;;;;5073710;28;20477;-44
2023/04/10 04:24:22;;;;;;;62.28;40.17;;;6.50;99.90;;;;;;5073646;28;20044;-47
2023/04/10 04:26:47;;;;;;;59.85;41.40;;;6.50;99.90;;;;;;5073553;28;20408;-47
2023/04/10 04:29:13;;;;;;;62.63;41.92;;;6.50;99.90;;;;;;5073328;28;20047;-45
2023/04/10 04:31:39;;;;;;;60.72;40.90;;;6.50;99.90;;;;;;5073617;28;20052;-44
2023/04/10 04:34:05;;;;;;;59.58;40.03;;;6.50;99.90;;;;;;5073462;28;20405;-46
2023/04/10 04:36:30;;;;;;;62.53;42.13;;;6.50;99.90;;;;;;5073486;28;20036;-48
2023/04/10 04:38:56;;;;;;;60.97;40.97;;;6.60;99.90;;;;;;5071842;28;20072;-47
2023/04/10 04:41:22;;;;;;;61.47;41.45;;;6.60;99.90;;;;;;5073078;28;20032;-44
2023/04/10 04:43:48;;;;;;;65.25;43.17;;;6.60;99.90;;;;;;5073315;28;20052;-45
2023/04/10 04:46:14;;;;;;;60.95;41.60;;;6.60;99.90;;;;;;5073130;28;20055;-45
2023/04/10 04:48:41;;;;;;;63.30;41.40;;;6.60;99.90;;;;;;5071577;28;20044;-46
2023/04/10 04:51:06;;;;;;;63.33;42.30;;;6.50;99.90;;;;;;5072976;28;20040;-45
2023/04/10 04:53:32;;;;;;;63.50;41.63;;;6.50;99.90;;;;;;5072949;28;20147;-44
2023/04/10 04:55:58;;;;;;;60.50;41.83;;;6.40;99.90;;;;;;5072880;28;20029;-45
2023/04/10 04:58:24;;;;;;;64.75;42.25;;;6.50;99.90;;;;;;5071632;28;20123;-44
2023/04/10 05:00:53;;;;;;;59.03;41.95;;;6.50;99.90;;;;;;5072670;28;20060;-45
2023/04/10 05:03:19;;;;;;;60.28;40.90;;;6.50;99.90;;;;;;5072982;28;20130;-44
2023/04/10 05:05:45;;;;;;;62.30;42.05;;;6.50;99.90;;;;;;5072804;28;20041;-45
2023/04/10 05:08:10;;;;;;;62.90;43.65;;;6.60;99.90;;;;;;5072677;28;20037;-44
2023/04/10 05:10:36;;;;;;;60.15;41.75;;;6.70;99.90;;;;;;5072603;28;20041;-45
2023/04/10 05:13:02;;;;;;;63.80;43.22;;;6.60;99.90;;;;;;5072794;28;20048;-46
2023/04/10 05:15:27;;;;;;;59.50;40.90;;;6.70;99.90;;;;;;5072371;28;20044;-45
2023/04/10 05:17:53;;;;;;;63.78;42.97;;;6.80;99.90;;;;;;5072572;28;20048;-45
2023/04/10 05:20:20;;;;;;;64.53;42.78;;;6.80;99.90;;;;;;5072321;28;20088;-45
2023/04/10 05:22:46;;;;;;;62.00;42.72;;;6.80;99.90;;;;;;5070674;28;20072;-45
2023/04/10 05:25:12;;;;;;;63.45;41.50;;;6.90;99.90;;;;;;5070551;28;20119;-48
2023/04/10 05:27:38;;;;;;;61.45;42.38;;;7.00;99.90;;;;;;5071115;28;20112;-47
2023/04/10 05:30:04;;;;;;;61.20;41.78;;;7.00;99.90;;;;;;5069720;28;20085;-46
2023/04/10 05:32:30;;;;;;;59.15;41.25;;;7.00;99.90;;;;;;5070968;28;20086;-45
2023/04/10 05:34:56;;;;;;;56.35;39.50;;;7.10;99.90;;;;;;5070675;28;20048;-46
2023/04/10 05:37:21;;;;;;;59.47;41.10;;;7.10;99.90;;;;;;5070845;28;20079;-45
2023/04/10 05:39:47;;;;;;;62.78;41.25;;;7.20;99.90;;;;;;5070626;28;20097;-47
2023/04/10 05:42:12;;;;;;;60.20;40.70;;;7.30;99.90;;;;;;5070599;28;20449;-47
2023/04/10 05:44:38;;;;;;;59.03;39.88;;;7.30;99.90;;;;;;5070768;28;20393;-45
2023/04/10 05:47:04;;;;;;;56.05;38.90;;;7.30;99.90;;;;;;5070624;28;20144;-46
2023/04/10 05:49:30;;;;;;;57.80;39.17;;;7.30;99.90;;;;;;5052321;28;20494;-45
2023/04/10 05:51:56;;;;;;;59.50;39.75;;;7.40;99.90;;;;;;5070300;28;20040;-47
2023/04/10 05:54:21;;;;;;;54.88;38.08;;;7.40;99.90;;;;;;5070477;28;20048;-48
2023/04/10 05:56:47;;;;;;;55.25;36.75;;;7.40;99.90;;;;;;5070307;28;20099;-47
2023/04/10 05:59:13;;;;;;;55.22;37.45;;;7.50;99.90;;;;;;5070509;28;20373;-47
2023/04/10 06:01:39;;;;;;;55.05;36.40;;;7.60;99.90;;;;;;5070481;28;20056;-46
2023/04/10 06:04:05;;;;;;;51.83;36.67;;;7.70;99.90;;;;;;5067281;28;20032;-45
2023/04/10 06:06:32;;;;;;;52.63;36.75;;;7.70;99.90;;;;;;5050257;28;20113;-46
2023/04/10 06:08:58;;;;;;;57.53;37.53;;;7.70;99.90;;;;;;5050171;28;20033;-48
2023/04/10 06:11:24;;;;;;;53.78;35.22;;;7.80;99.90;;;;;;5049180;28;20654;-46
2023/04/10 06:13:49;;;;;;;53.58;35.03;;;7.80;99.90;;;;;;5058442;28;20040;-46
2023/04/10 06:16:15;;;;;;;50.80;34.85;;;7.90;99.90;;;;;;5060749;28;20067;-48
2023/04/10 06:18:41;;;;;;;48.72;33.95;;;8.00;99.90;;;;;;5065602;28;20389;-46
2023/04/10 06:21:07;;;;;;;49.85;34.22;;;8.00;99.90;;;;;;5070162;28;20046;-46
2023/04/10 06:23:33;;;;;;;49.28;33.10;;;8.00;99.90;;;;;;5058784;28;20118;-47
2023/04/10 06:25:59;;;;;;;48.53;32.83;;;8.10;99.90;;;;;;5058655;28;20036;-46
2023/04/10 06:28:25;;;;;;;49.67;33.13;;;8.10;99.90;;;;;;5057719;28;20076;-45
2023/04/10 06:30:51;;;;;;;48.88;33.35;;;8.10;99.90;;;;;;5061130;28;20071;-45
2023/04/10 06:33:16;;;;;;;48.15;32.33;;;8.20;99.90;;;;;;5059996;28;20036;-46
2023/04/10 06:35:42;;;;;;;48.25;32.22;;;8.30;99.90;;;;;;5062273;28;20091;-47
2023/04/10 06:38:08;;;;;;;48.67;33.00;;;8.20;99.90;;;;;;5073958;28;20045;-45
2023/04/10 06:40:34;;;;;;;45.70;32.63;;;8.30;99.90;;;;;;5073800;28;20357;-48
2023/04/10 06:43:00;;;;;;;49.22;32.90;;;8.40;99.90;;;;;;5073412;28;20294;-47
2023/04/10 06:45:26;;;;;;;44.40;29.77;;;8.50;99.90;;;;;;5073705;28;20032;-46
2023/04/10 06:47:52;;;;;;;46.55;30.85;;;8.50;99.90;;;;;;5073712;28;20405;-45
2023/04/10 06:50:18;;;;;;;49.92;32.05;;;8.60;99.90;;;;;;5072249;28;20041;-46
2023/04/10 06:52:45;;;;;;;48.92;31.02;;;8.80;99.90;;;;;;5073708;28;20048;-45
2023/04/10 06:55:11;;;;;;;43.70;29.52;;;8.90;99.90;;;;;;5073679;28;20476;-45
2023/04/10 06:57:38;;;;;;;44.45;30.52;;;8.90;99.90;;;;;;5073883;28;20407;-44
2023/04/10 07:00:05;;;;;;;44.65;29.48;;;9.00;99.90;;;;;;5073218;28;20045;-45
2023/04/10 07:02:30;;;;;;;43.83;29.52;;;9.00;99.90;;;;;;5073543;28;20057;-45
2023/04/10 07:04:56;;;;;;;41.17;28.38;;;9.00;99.90;;;;;;5072267;28;20399;-44
2023/04/10 07:07:22;;;;;;;43.47;30.02;;;9.00;99.90;;;;;;5073214;28;20041;-45
2023/04/10 07:09:48;;;;;;;45.25;30.65;;;9.00;99.90;;;;;;5073460;28;20080;-45
2023/04/10 07:12:13;;;;;;;41.17;27.13;;;9.10;99.90;;;;;;5057804;28;20157;-46
2023/04/10 07:14:40;;;;;;;43.28;28.63;;;9.20;99.90;;;;;;5061309;28;20068;-45
2023/04/10 07:17:05;;;;;;;42.85;28.02;;;9.30;99.90;;;;;;5061562;28;20036;-46
2023/04/10 07:19:31;;;;;;;42.33;27.27;;;9.30;99.90;;;;;;5062229;28;20056;-45
2023/04/10 07:21:57;;;;;;;39.55;27.70;;;9.40;99.90;;;;;;5073147;28;20394;-46
2023/04/10 07:24:23;;;;;;;43.42;27.27;;;9.50;99.90;;;;;;5072412;28;20064;-48
2023/04/10 07:26:48;;;;;;;42.35;26.33;;;9.60;99.90;;;;;;5073104;28;20402;-45
2023/04/10 07:29:14;;;;;;;41.42;25.88;;;9.70;99.90;;;;;;5071598;28;20044;-45
2023/04/10 07:31:40;;;;;;;40.80;27.77;;;9.80;99.90;;;;;;5073029;28;20040;-48
2023/04/10 07:34:06;;;;;;;39.00;26.58;;;9.90;99.90;;;;;;5062580;28;20056;-47
2023/04/10 07:36:32;;;;;;;37.70;27.45;;;10.00;99.90;;;;;;5061107;28;20041;-46
2023/04/10 07:38:58;;;;;;;40.20;27.48;;;10.20;99.90;;;;;;5057647;28;20040;-47
2023/04/10 07:41:24;;;;;;;40.58;27.50;;;10.30;99.90;;;;;;5053097;28;20087;-45
2023/04/10 07:43:49;;;;;;;41.22;27.02;;;10.50;99.90;;;;;;5053021;28;20041;-46
2023/04/10 07:46:16;;;;;;;39.75;27.70;;;10.60;99.90;;;;;;5051833;28;20037;-49
2023/04/10 07:48:42;;;;;;;42.67;27.92;;;10.70;99.90;;;;;;5064363;28;20029;-48
2023/04/10 07:51:08;;;;;;;37.70;26.13;;;10.80;99.90;;;;;;5072917;28;20485;-48
2023/04/10 07:53:37;;;;;;;44.28;27.25;;;11.00;99.90;;;;;;5071200;28;20059;-47
2023/04/10 07:56:04;;;;;;;39.30;26.88;;;11.10;99.90;;;;;;5072783;28;20503;-45
2023/04/10 07:58:30;;;;;;;37.85;26.85;;;11.10;99.90;;;;;;5071324;28;20575;-46
2023/04/10 08:00:56;;;;;;;39.97;27.27;;;11.20;99.90;;;;;;5072771;28;20060;-46
2023/04/10 08:03:22;;;;;;;38.20;26.50;;;11.20;99.90;;;;;;5072404;28;20485;-49
2023/04/10 08:05:48;;;;;;;39.33;26.63;;;11.20;99.90;;;;;;5072650;28;20032;-45
2023/04/10 08:08:15;;;;;;;39.03;26.60;;;11.20;99.90;;;;;;5070730;28;20044;-46
2023/04/10 08:10:40;;;;;;;40.63;27.90;;;11.10;99.90;;;;;;5053559;28;20551;-47
2023/04/10 08:13:06;;;;;;;39.53;27.40;;;11.00;99.90;;;;;;5052454;28;20033;-46
2023/04/10 08:15:32;;;;;;;37.15;25.48;;;11.10;99.90;;;;;;5050264;28;20068;-46
2023/04/10 08:17:58;;;;;;;39.15;26.30;;;11.20;99.90;;;;;;5053095;28;20041;-44
2023/04/10 08:20:24;;;;;;;38.40;25.58;;;11.30;99.90;;;;;;5053415;28;20489;-45
2023/04/10 08:22:49;;;;;;;35.70;24.65;;;11.40;99.90;;;;;;5053667;28;20444;-47
2023/04/10 08:25:15;;;;;;;36.55;24.98;;;11.60;99.90;;;;;;5052411;28;20052;-45
2023/04/10 08:27:41;;;;;;;36.60;24.17;;;11.70;99.90;;;;;;5053725;28;20033;-47
2023/04/10 08:30:07;;;;;;;37.05;25.65;;;11.80;99.90;;;;;;5053651;28;20509;-46
2023/04/10 08:32:33;;;;;;;38.85;26.42;;;12.00;99.90;;;;;;5052153;28;20524;-47
2023/04/10 08:34:58;;;;;;;34.75;24.15;;;12.00;99.90;;;;;;5053430;28;20081;-47
2023/04/10 08:37:25;;;;;;;34.50;23.35;;;12.20;99.90;;;;;;5053180;28;20056;-47
2023/04/10 08:39:52;;;;;;;35.78;26.17;;;12.40;99.90;;;;;;5053139;28;20497;-44
2023/04/10 08:42:17;;;;;;;35.55;24.88;;;12.30;99.90;;;;;;5053035;28;20033;-47
2023/04/10 08:44:44;;;;;;;32.40;22.60;;;12.30;99.90;;;;;;5053031;28;20055;-45
2023/04/10 08:47:11;;;;;;;33.75;22.67;;;12.30;99.90;;;;;;5066190;28;20040;-48
2023/04/10 08:50:01;;;;;;;31.83;22.00;;;12.40;99.90;;;;;;5073018;28;20119;-49
2023/04/10 08:52:33;;;;;;;30.30;21.55;;;12.50;99.90;;;;;;5066756;28;20432;-47
2023/04/10 08:55:01;;;;;;;34.00;22.27;;;12.60;99.90;;;;;;5062987;28;20070;-46
2023/04/10 08:57:28;;;;;;;32.00;21.40;;;12.80;99.90;;;;;;5056570;28;20489;-46
2023/04/10 08:59:54;;;;;;;30.67;21.50;;;12.80;99.90;;;;;;5070530;28;20430;-45
2023/04/10 09:02:20;;;;;;;30.00;21.40;;;12.90;99.90;;;;;;5072755;28;20037;-44
2023/04/10 09:04:49;;;;;;;32.72;21.35;;;12.80;99.90;;;;;;5072533;28;20488;-44
2023/04/10 09:07:15;;;;;;;30.15;19.20;;;12.90;99.90;;;;;;5072883;28;20086;-44
2023/04/10 09:09:42;;;;;;;27.30;18.85;;;13.00;99.90;;;;;;5072739;28;20040;-45
2023/04/10 09:12:07;;;;;;;27.00;19.08;;;13.00;99.90;;;;;;5072154;28;20370;-45
2023/04/10 09:14:34;;;;;;;30.20;19.48;;;13.10;99.90;;;;;;5072165;28;20043;-44
2023/04/10 09:17:12;;;;;;;26.15;18.27;;;13.20;99.90;;;;;;5071351;28;20047;-46
2023/04/10 09:19:38;;;;;;;26.55;18.45;;;13.30;99.90;;;;;;5063740;28;20114;-46
2023/04/10 09:22:04;;;;;;;25.42;18.15;;;13.30;99.90;;;;;;5062442;28;20488;-46
2023/04/10 09:24:30;;;;;;;25.80;18.90;;;13.40;99.90;;;;;;5060668;28;20028;-45
2023/04/10 09:26:56;;;;;;;24.92;17.63;;;13.40;99.90;;;;;;5067625;28;20033;-45
2023/04/10 09:29:21;;;;;;;24.73;17.23;;;13.50;99.90;;;;;;5060865;28;20095;-47
2023/04/10 09:31:47;;;;;;;24.65;17.02;;;13.60;99.90;;;;;;5061451;28;20493;-45
2023/04/10 09:34:23;;;;;;;24.17;16.02;;;13.40;99.90;;;;;;5061033;28;20036;-50
2023/04/10 09:36:54;;;;;;;22.77;15.85;;;13.50;99.90;;;;;;5060891;28;20040;-45
2023/04/10 09:39:20;;;;;;;23.33;15.48;;;13.50;99.90;;;;;;5059673;28;20044;-46
2023/04/10 09:41:54;;;;;;;24.00;16.80;;;13.60;99.90;;;;;;5061401;28;20040;-45
2023/04/10 09:44:36;;;;;;;22.67;16.13;;;13.70;99.90;;;;;;5061670;28;20028;-45
2023/04/10 09:47:20;;;;;;;23.98;17.27;;;13.90;99.90;;;;;;5061114;28;20025;-46
2023/04/10 09:49:51;;;;;;;23.02;16.60;;;13.80;99.90;;;;;;5060242;28;20128;-51
2023/04/10 09:52:28;;;;;;;22.67;16.45;;;13.90;99.90;;;;;;5061168;28;20508;-45
2023/04/10 09:54:58;;;;;;;22.25;15.45;;;14.00;99.90;;;;;;5060847;28;20048;-45
2023/04/10 09:57:25;;;;;;;22.67;16.02;;;14.10;99.90;;;;;;5063403;28;20113;-46
2023/04/10 09:59:53;;;;;;;20.48;13.95;;;14.10;99.90;;;;;;5071654;28;20053;-47
2023/04/10 10:02:21;;;;;;;19.75;13.35;;;14.20;99.90;;;;;;5066005;28;20045;-46
2023/04/10 10:04:49;;;;;;;19.83;13.02;;;14.20;99.90;;;;;;5061132;28;20477;-45
2023/04/10 10:07:20;;;;;;;21.15;14.30;;;14.20;99.90;;;;;;5061852;28;20181;-46
2023/04/10 10:09:47;;;;;;;19.90;13.60;;;14.30;99.90;;;;;;5055921;28;20120;-50
2023/04/10 10:12:22;;;;;;;18.27;13.00;;;14.30;99.90;;;;;;5051857;28;20045;-45
2023/04/10 10:15:04;;;;;;;19.85;13.65;;;14.30;99.90;;;;;;5051573;28;20124;-46
2023/04/10 10:18:11;;;;;;;18.45;13.10;;;14.40;99.90;;;;;;5050752;28;20126;-44
2023/04/10 10:20:40;;;;;;;16.77;11.85;;;14.40;99.90;;;;;;5043915;28;20079;-46
2023/04/10 10:23:07;;;;;;;19.63;13.02;;;14.30;99.90;;;;;;5061174;28;20044;-48
2023/04/10 10:25:34;;;;;;;18.50;13.18;;;14.30;99.90;;;;;;5059987;28;20053;-48
2023/04/10 10:28:03;;;;;;;17.75;11.65;;;14.30;99.90;;;;;;5060912;28;20532;-45
2023/04/10 10:30:31;;;;;;;19.20;12.25;;;14.40;99.90;;;;;;5061818;28;20041;-45
2023/04/10 10:32:58;;;;;;;17.50;11.25;;;14.40;99.90;;;;;;5059023;28;20446;-45
2023/04/10 10:35:25;;;;;;;15.52;10.52;;;14.30;99.90;;;;;;5064764;28;20044;-46
2023/04/10 10:37:52;;;;;;;16.40;11.82;;;14.30;99.90;;;;;;5071483;28;20060;-47
2023/04/10 10:40:36;;;;;;;17.85;12.15;;;14.20;99.90;;;;;;5070998;28;20531;-47
2023/04/10 10:43:31;;;;;;;16.40;11.48;;;14.20;99.90;;;;;;5071916;28;20389;-45
2023/04/10 10:46:10;;;;;;;16.60;10.98;;;14.30;99.90;;;;;;5070345;28;20509;-48
2023/04/10 10:48:35;;;;;;;15.90;11.10;;;14.30;99.90;;;;;;5064783;28;20503;-47
2023/04/10 10:51:02;;;;;;;14.82;10.02;;;14.30;99.90;;;;;;5070793;28;20115;-45
2023/04/10 10:53:42;;;;;;;14.63;9.48;;;14.20;99.90;;;;;;5071474;28;20044;-45
2023/04/10 10:56:34;;;;;;;14.57;9.35;;;14.20;99.90;;;;;;5071314;28;20109;-47
2023/04/10 10:59:00;;;;;;;14.23;9.88;;;14.20;99.90;;;;;;5071692;28;20126;-46
2023/04/10 11:01:27;;;;;;;13.00;8.68;;;14.20;99.90;;;;;;5066534;28;20056;-46
2023/04/10 11:03:53;;;;;;;13.82;9.52;;;14.30;99.90;;;;;;5061470;28;20477;-51
2023/04/10 11:06:20;;;;;;;15.65;10.00;;;14.40;99.90;;;;;;5062013;28;20044;-47
2023/04/10 11:08:48;;;;;;;15.57;10.18;;;14.40;99.90;;;;;;5060622;28;20037;-48
2023/04/10 11:11:22;;;;;;;13.13;9.00;;;14.40;99.90;;;;;;5060119;28;20051;-46
2023/04/10 11:13:57;;;;;;;13.65;9.57;;;14.60;99.90;;;;;;5060899;28;20075;-46
2023/04/10 11:16:42;;;;;;;15.30;9.30;;;14.60;99.90;;;;;;5069837;28;20047;-46
2023/04/10 11:19:11;;;;;;;13.57;8.98;;;14.70;99.90;;;;;;5071217;28;20048;-45
2023/04/10 11:22:04;;;;;;;13.45;9.40;;;14.70;99.90;;;;;;5074399;28;20117;-46
2023/04/10 11:25:00;;;;;;;12.60;8.90;;;14.70;99.90;;;;;;5074818;28;20044;-46
2023/04/10 11:27:48;;;;;;;12.35;8.50;;;14.60;99.90;;;;;;5074634;28;20043;-45
2023/04/10 11:30:29;;;;;;;13.48;9.20;;;14.70;99.90;;;;;;5074706;28;20090;-46
2023/04/10 11:32:55;;;;;;;13.18;9.13;;;14.70;99.90;;;;;;5074895;28;20094;-46
2023/04/10 11:35:21;;;;;;;12.70;8.52;;;14.60;99.90;;;;;;5074676;28;20198;-45
2023/04/10 11:37:47;;;;;;;12.95;8.63;;;14.60;99.90;;;;;;5074712;28;20458;-45
2023/04/10 11:40:13;;;;;;;13.55;8.13;;;14.60;99.90;;;;;;5073097;28;20547;-47
2023/04/10 11:42:38;;;;;;;13.00;8.60;;;14.70;99.90;;;;;;5074676;28;20226;-46
2023/04/10 11:45:27;;;;;;;12.63;7.85;;;14.70;99.90;;;;;;5074169;28;20377;-45
2023/04/10 11:47:53;;;;;;;11.75;7.85;;;14.80;99.90;;;;;;5072524;28;20090;-45
2023/04/10 11:50:20;;;;;;;12.25;7.55;;;14.80;99.90;;;;;;5072641;28;20051;-44
2023/04/10 11:52:48;;;;;;;10.73;6.78;;;14.90;99.90;;;;;;5055928;28;20087;-45
2023/04/10 11:55:15;;;;;;;10.98;7.40;;;15.00;99.90;;;;;;5073414;28;20145;-45
2023/04/10 11:57:41;;;;;;;12.02;7.93;;;15.10;99.90;;;;;;5074334;28;20043;-45
2023/04/10 12:00:07;;;;;;;12.10;7.68;;;15.30;99.90;;;;;;5073938;28;20040;-44
2023/04/10 12:02:33;;;;;;;10.50;7.55;;;15.40;99.90;;;;;;5074139;28;20045;-45
2023/04/10 12:04:59;;;;;;;11.27;7.00;;;15.50;99.90;;;;;;5074077;28;20040;-45
2023/04/10 12:07:30;;;;;;;11.95;7.30;;;15.50;99.90;;;;;;5073911;28;20405;-45
2023/04/10 12:09:57;;;;;;;10.30;6.22;;;15.50;99.90;;;;;;5074190;28;20036;-44
2023/04/10 12:12:35;;;;;;;10.73;6.53;;;15.70;99.90;;;;;;5073818;28;20511;-44
2023/04/10 12:15:02;;;;;;;11.90;6.55;;;15.90;99.90;;;;;;5073901;28;20076;-45
2023/04/10 12:17:29;;;;;;;9.80;5.53;;;16.10;99.90;;;;;;5073740;28;20044;-47
2023/04/10 12:19:56;;;;;;;10.52;6.00;;;16.10;99.90;;;;;;5073607;28;20178;-46
2023/04/10 12:22:22;;;;;;;11.05;6.60;;;16.10;99.90;;;;;;5073764;28;20119;-47
2023/04/10 12:24:50;;;;;;;10.10;6.60;;;16.10;99.90;;;;;;5073705;28;20108;-47
2023/04/10 12:27:22;;;;;;;9.20;5.50;;;16.20;99.90;;;;;;5073604;28;20384;-48
2023/04/10 12:29:51;;;;;;;9.73;5.57;;;16.10;99.00;;;;;;5073554;28;20041;-46
2023/04/10 12:32:17;;;;;;;10.48;6.07;;;16.00;99.90;;;;;;5072844;28;20040;-49
2023/04/10 12:34:50;;;;;;;10.75;6.15;;;16.00;99.90;;;;;;5073767;28;20119;-48
2023/04/10 12:37:16;;;;;;;9.30;6.15;;;16.00;99.90;;;;;;5073530;28;20147;-46
2023/04/10 12:39:41;;;;;;;10.57;6.40;;;15.90;99.90;;;;;;5073286;28;20493;-45